MDPP/POP METAR and TAF weather

Enter ICAO airport designator
Station Type Date Time Source
MDPP METAR 2020/08/15 16:00 UTC NOAA

MDPP 151600Z 06016KT 9999 SCT018 29/25 Q1014


Station Type Date Time Source
MDPP Decoded METAR 2020/08/15 16:00 UTC NOAA

Puerto Plata International, Dominican Republic (MDPP) 19-45N 070-33W
Aug 15, 2020 - 12:00 PM EDT / 2020.08.15 1600 UTC
Wind: from the ENE (060 degrees) at 18 MPH (16 KT):0
Visibility: greater than 7 mile(s):0
Sky conditions: partly cloudy
Temperature: 84 F (29 C)
Dew Point: 77 F (25 C)
Relative Humidity: 79%
Pressure (altimeter): 29.94 in. Hg (1014 hPa)
ob: MDPP 151600Z 06016KT 9999 SCT018 29/25 Q1014
cycle: 16

Station Type Date Time Source
MDPP TAF 2020/08/15 18:00 UTC NOAA

TAF TAF MDPP 151600Z 1518/1618 06014KT 9999 FEW017CB BKN018 PROB30 1518/1600 7000?TSRA FEW016CB BKN018 SCT070
BECMG 1600/1602 00000KT

Example: see airport list